createdAt,value
2023-04-16T00:01:46.767Z,20.00
2023-04-16T00:04:13.438Z,21.90
2023-04-16T00:06:40.080Z,22.70
2023-04-16T00:09:07.505Z,21.70
2023-04-16T00:11:35.085Z,23.30
2023-04-16T00:14:01.719Z,21.70
2023-04-16T00:16:28.486Z,22.00
2023-04-16T00:18:55.007Z,21.90
2023-04-16T00:21:21.572Z,21.80
2023-04-16T00:23:48.205Z,22.00
2023-04-16T00:26:15.473Z,21.40
2023-04-16T00:28:42.140Z,19.70
2023-04-16T00:31:08.709Z,20.90
2023-04-16T00:33:35.467Z,20.50
2023-04-16T00:36:02.291Z,19.50
2023-04-16T00:38:29.808Z,18.80
2023-04-16T00:40:59.387Z,20.00
2023-04-16T00:43:26.651Z,21.50
2023-04-16T00:45:56.644Z,21.30
2023-04-16T00:48:24.222Z,20.90
2023-04-16T00:50:50.914Z,21.60
2023-04-16T00:53:17.551Z,21.30
2023-04-16T00:55:45.574Z,21.50
2023-04-16T00:58:12.419Z,21.50
2023-04-16T01:00:39.049Z,21.40
2023-04-16T01:03:05.956Z,21.30
2023-04-16T01:05:32.845Z,19.80
2023-04-16T01:08:00.611Z,20.80
2023-04-16T01:10:27.301Z,18.40
2023-04-16T01:12:53.921Z,19.80
2023-04-16T01:15:20.482Z,18.60
2023-04-16T01:17:47.229Z,18.30
2023-04-16T01:20:14.259Z,18.70
2023-04-16T01:22:40.873Z,18.70
2023-04-16T01:25:08.329Z,18.90
2023-04-16T01:27:36.920Z,17.80
2023-04-16T01:30:04.489Z,18.90
2023-04-16T01:32:39.180Z,18.20
2023-04-16T01:35:06.278Z,16.90
2023-04-16T01:37:33.143Z,17.40
2023-04-16T01:39:59.721Z,19.50
2023-04-16T01:42:26.228Z,18.10
2023-04-16T01:44:52.855Z,17.90
2023-04-16T01:47:19.422Z,17.60
2023-04-16T01:49:47.549Z,17.50
2023-04-16T01:52:14.024Z,17.80
2023-04-16T01:54:40.655Z,18.50
2023-04-16T01:57:07.274Z,19.50
2023-04-16T01:59:33.996Z,20.60
2023-04-16T02:02:10.319Z,19.70
2023-04-16T02:04:38.783Z,18.60
2023-04-16T02:07:06.298Z,20.20
2023-04-16T02:09:37.716Z,21.50
2023-04-16T02:12:06.888Z,21.90
2023-04-16T02:14:33.616Z,24.70
2023-04-16T02:17:00.548Z,24.70
2023-04-16T02:19:38.973Z,29.00
2023-04-16T02:22:06.155Z,30.00
2023-04-16T02:24:32.847Z,28.80
2023-04-16T02:27:01.084Z,29.60
2023-04-16T02:29:28.013Z,30.80
2023-04-16T02:32:00.284Z,31.20
2023-04-16T02:34:27.359Z,29.30
2023-04-16T02:36:54.427Z,28.30
2023-04-16T02:39:21.560Z,29.40
2023-04-16T02:41:48.173Z,29.20
2023-04-16T02:44:15.039Z,28.40
2023-04-16T02:46:41.537Z,30.70
2023-04-16T02:49:08.320Z,27.00
2023-04-16T02:51:34.981Z,28.00
2023-04-16T02:54:02.496Z,28.30
2023-04-16T02:56:29.228Z,29.90
2023-04-16T02:58:55.895Z,29.00
2023-04-16T03:01:22.524Z,29.30
2023-04-16T03:03:49.205Z,30.00
2023-04-16T03:06:16.149Z,27.10
2023-04-16T03:08:42.645Z,28.10
2023-04-16T03:11:09.225Z,26.00
2023-04-16T03:13:36.013Z,26.20
2023-04-16T03:16:02.539Z,23.70
2023-04-16T03:18:29.356Z,24.60
2023-04-16T03:20:56.022Z,26.10
2023-04-16T03:23:22.552Z,25.70
2023-04-16T03:25:50.097Z,27.10
2023-04-16T03:28:18.289Z,26.80
2023-04-16T03:30:52.146Z,25.30
2023-04-16T03:33:20.385Z,23.50
2023-04-16T03:35:46.927Z,25.90
2023-04-16T03:38:13.797Z,24.40
2023-04-16T03:40:40.894Z,25.10
2023-04-16T03:43:07.415Z,27.00
2023-04-16T03:45:34.004Z,26.20
2023-04-16T03:48:00.640Z,27.20
2023-04-16T03:50:27.289Z,23.80
2023-04-16T03:52:53.910Z,24.10
2023-04-16T03:55:20.681Z,23.10
2023-04-16T03:57:47.289Z,25.60
2023-04-16T04:00:16.277Z,23.20
2023-04-16T04:03:02.466Z,22.70
2023-04-16T04:05:29.230Z,21.50
2023-04-16T04:07:55.934Z,21.30
2023-04-16T04:10:22.955Z,22.80
2023-04-16T04:12:50.202Z,22.90
2023-04-16T04:15:17.120Z,23.10
2023-04-16T04:17:43.700Z,22.70
2023-04-16T04:20:11.122Z,24.00
2023-04-16T04:22:37.701Z,24.30
2023-04-16T04:25:04.829Z,24.70
2023-04-16T04:27:32.100Z,24.00
2023-04-16T04:29:58.681Z,24.70
2023-04-16T04:32:25.399Z,25.50
2023-04-16T04:34:52.117Z,24.20
2023-04-16T04:37:18.639Z,23.90
2023-04-16T04:39:45.536Z,25.60
2023-04-16T04:42:12.209Z,26.40
2023-04-16T04:44:39.162Z,25.70
2023-04-16T04:47:07.629Z,24.00
2023-04-16T04:49:34.885Z,27.00
2023-04-16T04:52:03.247Z,25.50
2023-04-16T04:54:31.941Z,24.70
2023-04-16T04:56:58.682Z,23.60
2023-04-16T04:59:25.456Z,24.30
2023-04-16T05:01:52.642Z,22.80
2023-04-16T05:04:21.755Z,24.70
2023-04-16T05:06:48.236Z,25.20
2023-04-16T05:09:14.959Z,24.00
2023-04-16T05:11:41.684Z,23.90
2023-04-16T05:14:08.257Z,25.00
2023-04-16T05:16:37.775Z,25.30
2023-04-16T05:19:04.620Z,23.90
2023-04-16T05:21:31.161Z,26.30
2023-04-16T05:23:58.158Z,25.30
2023-04-16T05:26:24.688Z,27.70
2023-04-16T05:28:51.222Z,30.00
2023-04-16T05:31:17.845Z,26.40
2023-04-16T05:33:44.582Z,28.50
2023-04-16T05:36:11.135Z,30.00
2023-04-16T05:38:37.670Z,28.60
2023-04-16T05:41:04.340Z,27.60
2023-04-16T05:43:31.192Z,26.70
2023-04-16T05:45:57.768Z,27.90
2023-04-16T05:48:24.544Z,27.30
2023-04-16T05:50:51.153Z,27.90
2023-04-16T05:53:18.373Z,26.50
2023-04-16T05:55:46.077Z,25.60
2023-04-16T05:58:12.566Z,26.20
2023-04-16T06:00:39.779Z,29.50
2023-04-16T06:03:06.467Z,28.40
2023-04-16T06:05:33.325Z,28.10
2023-04-16T06:07:59.939Z,28.50
2023-04-16T06:10:26.707Z,29.50
2023-04-16T06:12:53.309Z,27.60
2023-04-16T06:15:19.906Z,26.90
2023-04-16T06:17:46.552Z,26.50
2023-04-16T06:20:13.192Z,27.70
2023-04-16T06:22:39.895Z,28.30
2023-04-16T06:25:06.760Z,27.90
2023-04-16T06:27:33.454Z,25.30
2023-04-16T06:30:00.233Z,23.70
2023-04-16T06:32:26.939Z,19.90
2023-04-16T06:34:53.654Z,22.00
2023-04-16T06:37:21.480Z,22.90
2023-04-16T06:39:47.972Z,25.00
2023-04-16T06:42:14.877Z,24.30
2023-04-16T06:44:41.419Z,23.70
2023-04-16T06:47:08.038Z,21.00
2023-04-16T06:49:34.986Z,20.30
2023-04-16T06:52:03.802Z,20.00
2023-04-16T06:54:31.863Z,22.70
2023-04-16T06:56:58.381Z,21.40
2023-04-16T06:59:24.910Z,24.10
2023-04-16T07:01:52.257Z,24.40
2023-04-16T07:04:18.976Z,26.00
2023-04-16T07:06:46.135Z,24.10
2023-04-16T07:09:12.676Z,23.60
2023-04-16T07:11:39.751Z,18.40
2023-04-16T07:14:06.545Z,21.30
2023-04-16T07:16:33.319Z,21.20
2023-04-16T07:18:59.877Z,21.20
2023-04-16T07:21:27.117Z,22.90
2023-04-16T07:23:53.930Z,21.30
2023-04-16T07:26:20.602Z,17.80
2023-04-16T07:28:47.164Z,22.50
2023-04-16T07:31:13.941Z,19.90
2023-04-16T07:33:40.638Z,19.20
2023-04-16T07:36:07.411Z,18.60
2023-04-16T07:38:34.136Z,17.60
2023-04-16T07:41:01.066Z,16.80
2023-04-16T07:43:27.627Z,16.00
2023-04-16T07:45:54.459Z,16.80
2023-04-16T07:48:21.504Z,17.50
2023-04-16T07:50:49.440Z,16.10
2023-04-16T07:53:16.530Z,14.20
2023-04-16T07:55:43.187Z,14.40
2023-04-16T07:58:10.210Z,11.50
2023-04-16T08:00:36.918Z,9.70
2023-04-16T08:03:03.713Z,10.80
2023-04-16T08:05:30.448Z,9.30
2023-04-16T08:07:56.996Z,7.70
2023-04-16T08:10:23.521Z,9.70
2023-04-16T08:12:50.221Z,10.00
2023-04-16T08:15:17.055Z,8.40
2023-04-16T08:17:44.267Z,7.50
2023-04-16T08:20:14.973Z,8.30
2023-04-16T08:22:45.208Z,9.10
2023-04-16T08:25:11.810Z,6.10
2023-04-16T08:27:38.329Z,6.10
2023-04-16T08:30:05.710Z,7.20
2023-04-16T08:32:32.417Z,6.50
2023-04-16T08:34:59.194Z,7.20
2023-04-16T08:37:26.079Z,7.80
2023-04-16T08:39:52.847Z,6.60
2023-04-16T08:42:50.465Z,6.00
2023-04-16T08:45:17.495Z,6.40
2023-04-16T08:47:50.223Z,6.60
2023-04-16T08:50:22.040Z,5.50
2023-04-16T08:52:56.094Z,5.90
2023-04-16T08:55:31.727Z,5.60
2023-04-16T08:57:59.711Z,6.60
2023-04-16T09:00:27.924Z,5.60
2023-04-16T09:02:55.252Z,4.80
2023-04-16T09:05:25.119Z,5.90
2023-04-16T09:07:54.020Z,4.50
2023-04-16T09:10:21.525Z,5.20
2023-04-16T09:12:48.161Z,5.90
2023-04-16T09:15:14.913Z,5.70
2023-04-16T09:17:41.575Z,5.90
2023-04-16T09:20:10.410Z,4.80
2023-04-16T09:22:39.454Z,4.90
2023-04-16T09:25:07.340Z,6.00
2023-04-16T09:27:34.049Z,5.80
2023-04-16T09:30:00.771Z,5.60
2023-04-16T09:32:28.429Z,5.60
2023-04-16T09:35:00.318Z,5.90
2023-04-16T09:37:31.694Z,4.90
2023-04-16T09:40:00.389Z,6.20
2023-04-16T09:42:32.627Z,6.70
2023-04-16T09:45:01.372Z,5.90
2023-04-16T09:47:49.452Z,5.60
2023-04-16T09:50:19.001Z,5.90
2023-04-16T09:52:52.018Z,5.10
2023-04-16T09:55:23.295Z,4.90
2023-04-16T09:57:58.029Z,5.20
2023-04-16T10:00:24.905Z,5.50
2023-04-16T10:03:04.129Z,6.20
2023-04-16T10:05:31.105Z,6.60
2023-04-16T10:08:01.509Z,6.30
2023-04-16T10:10:29.300Z,6.20
2023-04-16T10:12:55.998Z,7.80
2023-04-16T10:15:22.811Z,7.00
2023-04-16T10:17:50.508Z,6.00
2023-04-16T10:20:17.764Z,4.90
2023-04-16T10:22:44.556Z,4.30
2023-04-16T10:25:11.477Z,4.90
2023-04-16T10:27:40.105Z,3.80
2023-04-16T10:30:08.267Z,4.40
2023-04-16T10:32:36.281Z,4.20
2023-04-16T10:35:06.653Z,5.00
2023-04-16T10:37:34.205Z,5.50
2023-04-16T10:40:01.247Z,6.40
2023-04-16T10:42:28.037Z,7.90
2023-04-16T10:44:59.155Z,8.90
2023-04-16T10:47:26.094Z,7.50
2023-04-16T10:49:52.768Z,7.10
2023-04-16T10:52:21.960Z,7.20
2023-04-16T10:54:49.901Z,7.20
2023-04-16T10:57:18.994Z,7.70
2023-04-16T10:59:48.036Z,6.80
2023-04-16T11:02:18.809Z,8.00
2023-04-16T11:04:48.066Z,7.80
2023-04-16T11:07:18.128Z,8.40
2023-04-16T11:10:03.601Z,6.80
2023-04-16T11:12:48.627Z,7.20
2023-04-16T11:15:18.720Z,6.50
2023-04-16T11:17:47.778Z,6.40
2023-04-16T11:20:20.736Z,6.20
2023-04-16T11:22:54.055Z,6.90
2023-04-16T11:25:23.539Z,5.40
2023-04-16T11:27:53.228Z,5.80
2023-04-16T11:30:33.152Z,5.00
2023-04-16T11:33:04.200Z,5.60
2023-04-16T11:35:30.937Z,5.50
2023-04-16T11:37:58.133Z,5.30
2023-04-16T11:40:28.782Z,3.30
2023-04-16T11:43:02.281Z,3.20
2023-04-16T11:45:29.230Z,4.20
2023-04-16T11:47:57.169Z,3.70
2023-04-16T11:50:28.129Z,4.70
2023-04-16T11:53:02.442Z,4.30
2023-04-16T11:55:29.183Z,5.20
2023-04-16T11:57:56.042Z,4.10
2023-04-16T12:00:24.621Z,4.70
2023-04-16T12:02:54.600Z,6.20
2023-04-16T12:05:40.827Z,5.80
2023-04-16T12:08:09.960Z,5.00
2023-04-16T12:10:54.289Z,4.90
2023-04-16T12:13:21.042Z,4.30
2023-04-16T12:15:52.773Z,3.40
2023-04-16T12:18:26.220Z,3.70
2023-04-16T12:20:53.104Z,3.60
2023-04-16T12:23:25.711Z,4.10
2023-04-16T12:25:52.558Z,4.10
2023-04-16T12:28:34.336Z,3.50
2023-04-16T12:31:02.150Z,4.10
2023-04-16T12:33:28.876Z,4.40
2023-04-16T12:35:55.748Z,4.30
2023-04-16T12:38:24.451Z,3.70
2023-04-16T12:40:55.800Z,3.10
2023-04-16T12:43:23.087Z,3.40
2023-04-16T12:45:54.036Z,7.80
2023-04-16T12:48:21.120Z,3.50
2023-04-16T12:50:47.853Z,3.00
2023-04-16T12:53:14.415Z,2.90
2023-04-16T12:55:41.117Z,2.70
2023-04-16T12:58:09.790Z,3.00
2023-04-16T13:00:37.792Z,3.30
2023-04-16T13:03:04.393Z,3.30
2023-04-16T13:05:30.993Z,4.60
2023-04-16T13:07:57.527Z,4.50
2023-04-16T13:10:24.361Z,3.90
2023-04-16T13:12:50.953Z,4.40
2023-04-16T13:15:17.631Z,4.40
2023-04-16T13:17:44.416Z,5.00
2023-04-16T13:20:11.325Z,4.70
2023-04-16T13:22:38.556Z,4.40
2023-04-16T13:25:06.010Z,4.60
2023-04-16T13:27:32.644Z,3.70
2023-04-16T13:29:59.196Z,4.60
2023-04-16T13:32:26.058Z,4.10
2023-04-16T13:34:52.618Z,4.30
2023-04-16T13:37:19.397Z,4.20
2023-04-16T13:39:46.790Z,4.20
2023-04-16T13:42:13.536Z,4.00
2023-04-16T13:44:40.473Z,4.50
2023-04-16T13:47:07.827Z,4.10
2023-04-16T13:49:35.914Z,3.80
2023-04-16T13:52:03.874Z,5.90
2023-04-16T13:54:30.653Z,7.90
2023-04-16T13:56:57.220Z,6.90
2023-04-16T13:59:23.787Z,9.90
2023-04-16T14:01:50.680Z,5.10
2023-04-16T14:04:18.208Z,4.30
2023-04-16T14:06:44.914Z,4.00
2023-04-16T14:09:11.775Z,3.50
2023-04-16T14:11:38.498Z,4.20
2023-04-16T14:14:06.752Z,3.60
2023-04-16T14:16:34.013Z,3.90
2023-04-16T14:19:00.911Z,4.00
2023-04-16T14:21:28.072Z,3.90
2023-04-16T14:23:54.847Z,4.10
2023-04-16T14:26:21.957Z,3.80
2023-04-16T14:28:51.021Z,4.00
2023-04-16T14:31:19.417Z,4.80
2023-04-16T14:33:46.596Z,3.80
2023-04-16T14:36:13.664Z,3.80
2023-04-16T14:38:45.188Z,4.10
2023-04-16T14:41:12.688Z,4.30
2023-04-16T14:43:41.079Z,4.60
2023-04-16T14:46:07.852Z,4.60
2023-04-16T14:48:35.764Z,3.50
2023-04-16T14:51:02.566Z,3.70
2023-04-16T14:53:29.118Z,5.10
2023-04-16T14:55:58.380Z,3.80
2023-04-16T14:58:25.639Z,3.80
2023-04-16T15:00:52.311Z,3.60
2023-04-16T15:03:19.379Z,3.90
2023-04-16T15:05:51.612Z,4.10
2023-04-16T15:08:18.239Z,5.20
2023-04-16T15:10:45.150Z,5.30
2023-04-16T15:13:11.713Z,4.00
2023-04-16T15:15:38.278Z,3.30
2023-04-16T15:18:06.056Z,3.50
2023-04-16T15:20:32.862Z,4.50
2023-04-16T15:22:59.578Z,4.10
2023-04-16T15:25:26.238Z,3.70
2023-04-16T15:27:53.094Z,4.20
2023-04-16T15:30:20.051Z,4.00
2023-04-16T15:32:47.060Z,4.30
2023-04-16T15:35:13.846Z,4.90
2023-04-16T15:37:41.275Z,4.00
2023-04-16T15:40:08.619Z,4.20
2023-04-16T15:42:35.679Z,3.60
2023-04-16T15:45:03.352Z,4.40
2023-04-16T15:47:30.640Z,4.20
2023-04-16T15:49:57.725Z,4.60
2023-04-16T15:52:24.936Z,4.00
2023-04-16T15:54:52.240Z,4.80
2023-04-16T15:57:19.021Z,4.50
2023-04-16T15:59:55.842Z,3.60
2023-04-16T16:02:33.722Z,4.90
2023-04-16T16:05:01.341Z,6.20
2023-04-16T16:07:28.811Z,4.60
2023-04-16T16:09:56.403Z,6.00
2023-04-16T16:12:24.540Z,5.50
2023-04-16T16:14:51.949Z,6.40
2023-04-16T16:17:20.421Z,7.10
2023-04-16T16:21:46.664Z,8.30
2023-04-16T16:24:15.978Z,8.20
2023-04-16T16:26:44.447Z,10.20
2023-04-16T16:29:12.777Z,8.90
2023-04-16T16:31:41.007Z,8.20
2023-04-16T16:34:14.736Z,8.50
2023-04-16T16:36:49.434Z,8.70
2023-04-16T16:39:17.581Z,9.70
2023-04-16T16:41:45.723Z,10.60
2023-04-16T16:44:13.627Z,9.10
2023-04-16T16:46:41.742Z,9.30
2023-04-16T16:49:10.180Z,9.70
2023-04-16T16:51:39.201Z,8.90
2023-04-16T16:54:07.947Z,9.30
2023-04-16T16:56:35.890Z,8.50
2023-04-16T16:59:04.075Z,9.70
2023-04-16T17:01:32.521Z,9.50
2023-04-16T17:04:00.651Z,9.50
2023-04-16T17:06:29.169Z,9.70
2023-04-16T17:08:57.131Z,9.60
2023-04-16T17:11:27.478Z,10.30
2023-04-16T17:13:55.366Z,10.50
2023-04-16T17:16:24.182Z,10.80
2023-04-16T17:18:52.514Z,10.00
2023-04-16T17:21:21.043Z,10.40
2023-04-16T17:23:48.994Z,9.10
2023-04-16T17:26:18.158Z,10.70
2023-04-16T17:28:51.179Z,9.40
2023-04-16T17:31:20.369Z,9.90
2023-04-16T17:33:51.254Z,9.30
2023-04-16T17:36:21.546Z,8.90
2023-04-16T17:38:51.164Z,10.50
2023-04-16T17:41:28.342Z,9.60
2023-04-16T17:43:56.770Z,9.50
2023-04-16T17:46:25.856Z,9.90
2023-04-16T17:48:55.034Z,10.00
2023-04-16T17:51:23.680Z,9.90
2023-04-16T17:53:52.296Z,10.80
2023-04-16T17:56:20.750Z,10.20
2023-04-16T17:58:49.404Z,10.00
2023-04-16T18:01:17.765Z,10.10
2023-04-16T18:03:46.601Z,11.50
2023-04-16T18:06:15.294Z,11.10
2023-04-16T18:08:43.918Z,11.20
2023-04-16T18:11:12.409Z,12.50
2023-04-16T18:13:41.570Z,12.20
2023-04-16T18:16:17.451Z,10.80
2023-04-16T18:18:46.808Z,12.00
2023-04-16T18:21:16.371Z,11.60
2023-04-16T18:23:45.276Z,14.00
2023-04-16T18:26:17.777Z,13.60
2023-04-16T18:28:47.097Z,12.80
2023-04-16T18:31:16.013Z,13.20
2023-04-16T18:33:56.544Z,13.80
2023-04-16T18:36:27.439Z,13.20
2023-04-16T18:39:02.190Z,12.80
2023-04-16T18:41:32.130Z,13.10
2023-04-16T18:44:01.183Z,13.40
2023-04-16T18:46:30.034Z,11.80
2023-04-16T18:49:02.690Z,11.30
2023-04-16T18:51:32.009Z,12.30
2023-04-16T18:54:00.690Z,11.00
2023-04-16T18:56:31.671Z,11.90
2023-04-16T18:59:00.243Z,12.80
2023-04-16T19:01:28.915Z,12.70
2023-04-16T19:03:57.715Z,11.40
2023-04-16T19:06:28.278Z,11.10
2023-04-16T19:08:58.066Z,10.60
2023-04-16T19:11:27.643Z,11.60
2023-04-16T19:13:56.484Z,15.30
2023-04-16T19:16:25.368Z,17.40
2023-04-16T19:18:54.628Z,14.20
2023-04-16T19:21:23.374Z,18.50
2023-04-16T19:23:52.495Z,13.50
2023-04-16T19:26:21.592Z,14.80
2023-04-16T19:28:50.238Z,13.10
2023-04-16T19:31:18.833Z,13.10
2023-04-16T19:33:47.525Z,15.30
2023-04-16T19:36:16.217Z,16.60
2023-04-16T19:38:44.787Z,12.10
2023-04-16T19:41:13.701Z,12.60
2023-04-16T19:43:43.199Z,13.20
2023-04-16T19:46:11.938Z,15.50
2023-04-16T19:48:40.380Z,14.60
2023-04-16T19:51:09.128Z,16.40
2023-04-16T19:53:37.881Z,14.40
2023-04-16T19:56:06.572Z,17.50
2023-04-16T19:58:35.331Z,14.10
2023-04-16T20:01:11.190Z,15.20
2023-04-16T20:06:12.744Z,14.60
2023-04-16T20:08:41.412Z,13.20
2023-04-16T20:11:09.836Z,13.00
2023-04-16T20:13:38.672Z,15.30
2023-04-16T20:16:09.531Z,13.90
2023-04-16T20:18:41.567Z,13.90
2023-04-16T20:21:10.120Z,13.20
2023-04-16T20:23:38.776Z,11.80
2023-04-16T20:26:07.099Z,12.90
2023-04-16T20:28:34.975Z,14.20
2023-04-16T20:31:03.144Z,12.30
2023-04-16T20:33:31.058Z,12.80
2023-04-16T20:35:59.081Z,12.50
2023-04-16T20:38:29.658Z,13.00
2023-04-16T20:41:10.413Z,13.00
2023-04-16T20:43:40.709Z,12.90
2023-04-16T20:46:09.585Z,12.80
2023-04-16T20:48:39.093Z,13.50
2023-04-16T20:51:10.700Z,12.40
2023-04-16T20:53:38.708Z,12.70
2023-04-16T20:56:07.252Z,14.10
2023-04-16T20:58:35.464Z,12.30
2023-04-16T21:01:04.792Z,12.80
2023-04-16T21:03:32.980Z,14.70
2023-04-16T21:06:02.467Z,14.10
2023-04-16T21:08:30.460Z,15.00
2023-04-16T21:10:58.409Z,15.10
2023-04-16T21:13:26.457Z,16.10
2023-04-16T21:15:54.960Z,16.20
2023-04-16T21:18:22.996Z,16.40
2023-04-16T21:20:51.115Z,16.70
2023-04-16T21:23:19.347Z,16.80
2023-04-16T21:25:56.340Z,16.50
2023-04-16T21:28:24.375Z,16.30
2023-04-16T21:30:53.809Z,15.60
2023-04-16T21:33:22.069Z,15.60
2023-04-16T21:35:53.786Z,16.40
2023-04-16T21:38:22.113Z,15.60
2023-04-16T21:40:53.709Z,15.80
2023-04-16T21:43:24.803Z,16.80
2023-04-16T21:45:56.098Z,16.60
2023-04-16T21:48:24.020Z,17.10
2023-04-16T21:50:59.134Z,15.20
2023-04-16T21:53:32.041Z,16.40
2023-04-16T21:56:00.313Z,15.20
2023-04-16T21:58:28.221Z,15.70
2023-04-16T22:00:56.332Z,14.80
2023-04-16T22:03:27.592Z,15.50
2023-04-16T22:06:01.479Z,14.70
2023-04-16T22:08:30.448Z,14.20
2023-04-16T22:11:00.361Z,15.40
2023-04-16T22:13:32.288Z,14.10
2023-04-16T22:16:01.731Z,13.40
2023-04-16T22:18:33.742Z,14.10
2023-04-16T22:21:02.105Z,13.40
2023-04-16T22:23:30.169Z,13.90
2023-04-16T22:25:58.041Z,13.90
2023-04-16T22:28:26.064Z,13.10
2023-04-16T22:30:54.025Z,14.30
2023-04-16T22:33:21.926Z,15.20
2023-04-16T22:35:49.901Z,13.20
2023-04-16T22:38:17.891Z,13.70
2023-04-16T22:40:48.278Z,13.20
2023-04-16T22:43:17.725Z,13.10
2023-04-16T22:45:46.448Z,13.50
2023-04-16T22:48:14.481Z,12.60
2023-04-16T22:50:48.613Z,13.80
2023-04-16T22:53:16.588Z,14.20
2023-04-16T22:55:44.581Z,13.90
2023-04-16T22:58:12.473Z,14.20
2023-04-16T23:00:40.753Z,12.80
2023-04-16T23:03:08.976Z,16.10
2023-04-16T23:05:36.993Z,13.40
2023-04-16T23:08:05.191Z,12.80
2023-04-16T23:10:33.238Z,12.30
2023-04-16T23:13:01.604Z,13.50
2023-04-16T23:15:29.695Z,14.30
2023-04-16T23:17:58.174Z,12.90
2023-04-16T23:20:26.200Z,13.40
2023-04-16T23:22:54.237Z,14.30
2023-04-16T23:25:25.571Z,14.50
2023-04-16T23:27:53.440Z,14.10
2023-04-16T23:30:21.467Z,13.70
2023-04-16T23:32:49.448Z,12.50
2023-04-16T23:35:22.812Z,13.20
2023-04-16T23:37:50.916Z,14.00
2023-04-16T23:40:18.824Z,13.10
2023-04-16T23:42:46.726Z,14.00
2023-04-16T23:45:14.617Z,13.90
2023-04-16T23:47:42.554Z,12.80
2023-04-16T23:50:11.049Z,12.40
2023-04-16T23:52:39.100Z,11.40
2023-04-16T23:55:07.396Z,12.60
2023-04-16T23:57:35.394Z,12.60
